sensor_id;sensor_type;location;lat;lon;timestamp;P1;durP1;ratioP1;P2;durP2;ratioP2
16504;SDS011;8365;51.030;4.696;2023-05-07T00:00:21;11.93;;;9.20;;
16504;SDS011;8365;51.030;4.696;2023-05-07T00:02:52;9.80;;;8.80;;
16504;SDS011;8365;51.030;4.696;2023-05-07T00:05:23;9.93;;;8.47;;
16504;SDS011;8365;51.030;4.696;2023-05-07T00:07:53;10.23;;;8.97;;
16504;SDS011;8365;51.030;4.696;2023-05-07T00:10:24;9.60;;;8.70;;
16504;SDS011;8365;51.030;4.696;2023-05-07T00:12:55;10.93;;;8.50;;
16504;SDS011;8365;51.030;4.696;2023-05-07T00:15:25;10.63;;;9.53;;
16504;SDS011;8365;51.030;4.696;2023-05-07T00:17:56;10.60;;;8.87;;
16504;SDS011;8365;51.030;4.696;2023-05-07T00:20:28;11.83;;;9.63;;
16504;SDS011;8365;51.030;4.696;2023-05-07T00:22:59;9.63;;;8.60;;
16504;SDS011;8365;51.030;4.696;2023-05-07T00:25:29;9.80;;;8.67;;
16504;SDS011;8365;51.030;4.696;2023-05-07T00:28:00;9.67;;;8.67;;
16504;SDS011;8365;51.030;4.696;2023-05-07T00:30:33;9.80;;;8.73;;
16504;SDS011;8365;51.030;4.696;2023-05-07T00:33:04;10.33;;;8.50;;
16504;SDS011;8365;51.030;4.696;2023-05-07T00:35:34;10.07;;;9.07;;
16504;SDS011;8365;51.030;4.696;2023-05-07T00:38:05;10.20;;;9.10;;
16504;SDS011;8365;51.030;4.696;2023-05-07T00:40:35;9.27;;;8.37;;
16504;SDS011;8365;51.030;4.696;2023-05-07T00:43:06;9.60;;;8.73;;
16504;SDS011;8365;51.030;4.696;2023-05-07T00:45:36;9.73;;;8.80;;
16504;SDS011;8365;51.030;4.696;2023-05-07T00:48:07;10.33;;;9.07;;
16504;SDS011;8365;51.030;4.696;2023-05-07T00:50:38;14.17;;;9.07;;
16504;SDS011;8365;51.030;4.696;2023-05-07T00:53:08;10.07;;;8.73;;
16504;SDS011;8365;51.030;4.696;2023-05-07T00:55:39;11.80;;;9.27;;
16504;SDS011;8365;51.030;4.696;2023-05-07T00:58:10;9.30;;;8.50;;
16504;SDS011;8365;51.030;4.696;2023-05-07T01:00:40;12.10;;;9.30;;
16504;SDS011;8365;51.030;4.696;2023-05-07T01:03:11;9.40;;;8.40;;
16504;SDS011;8365;51.030;4.696;2023-05-07T01:05:41;9.47;;;8.50;;
16504;SDS011;8365;51.030;4.696;2023-05-07T01:08:14;9.40;;;8.60;;
16504;SDS011;8365;51.030;4.696;2023-05-07T01:10:46;9.73;;;8.77;;
16504;SDS011;8365;51.030;4.696;2023-05-07T01:13:19;11.63;;;9.53;;
16504;SDS011;8365;51.030;4.696;2023-05-07T01:15:50;10.67;;;9.53;;
16504;SDS011;8365;51.030;4.696;2023-05-07T01:18:23;10.10;;;8.80;;
16504;SDS011;8365;51.030;4.696;2023-05-07T01:20:56;10.80;;;9.77;;
16504;SDS011;8365;51.030;4.696;2023-05-07T01:23:29;10.47;;;9.37;;
16504;SDS011;8365;51.030;4.696;2023-05-07T01:26:00;10.30;;;9.30;;
16504;SDS011;8365;51.030;4.696;2023-05-07T01:28:31;10.00;;;9.10;;
16504;SDS011;8365;51.030;4.696;2023-05-07T01:31:02;10.73;;;9.63;;
16504;SDS011;8365;51.030;4.696;2023-05-07T01:33:34;12.57;;;9.87;;
16504;SDS011;8365;51.030;4.696;2023-05-07T01:36:12;10.17;;;9.27;;
16504;SDS011;8365;51.030;4.696;2023-05-07T01:38:44;9.93;;;9.03;;
16504;SDS011;8365;51.030;4.696;2023-05-07T01:41:15;11.17;;;9.60;;
16504;SDS011;8365;51.030;4.696;2023-05-07T01:43:46;11.13;;;10.00;;
16504;SDS011;8365;51.030;4.696;2023-05-07T01:46:17;12.90;;;10.57;;
16504;SDS011;8365;51.030;4.696;2023-05-07T01:48:48;12.23;;;11.13;;
16504;SDS011;8365;51.030;4.696;2023-05-07T01:51:20;12.70;;;11.40;;
16504;SDS011;8365;51.030;4.696;2023-05-07T01:53:52;12.77;;;11.60;;
16504;SDS011;8365;51.030;4.696;2023-05-07T01:56:25;12.70;;;11.50;;
16504;SDS011;8365;51.030;4.696;2023-05-07T01:58:56;16.00;;;11.80;;
16504;SDS011;8365;51.030;4.696;2023-05-07T02:01:26;13.63;;;12.27;;
16504;SDS011;8365;51.030;4.696;2023-05-07T02:03:57;13.40;;;12.20;;
16504;SDS011;8365;51.030;4.696;2023-05-07T02:06:27;13.07;;;11.73;;
16504;SDS011;8365;51.030;4.696;2023-05-07T02:09:00;14.13;;;12.63;;
16504;SDS011;8365;51.030;4.696;2023-05-07T02:11:31;15.00;;;12.90;;
16504;SDS011;8365;51.030;4.696;2023-05-07T02:14:01;15.17;;;12.90;;
16504;SDS011;8365;51.030;4.696;2023-05-07T02:16:32;14.00;;;12.70;;
16504;SDS011;8365;51.030;4.696;2023-05-07T02:19:02;15.67;;;14.07;;
16504;SDS011;8365;51.030;4.696;2023-05-07T02:21:35;13.97;;;12.77;;
16504;SDS011;8365;51.030;4.696;2023-05-07T02:24:05;14.67;;;13.20;;
16504;SDS011;8365;51.030;4.696;2023-05-07T02:26:39;15.30;;;13.80;;
16504;SDS011;8365;51.030;4.696;2023-05-07T02:29:11;14.93;;;13.40;;
16504;SDS011;8365;51.030;4.696;2023-05-07T02:31:41;13.13;;;12.07;;
16504;SDS011;8365;51.030;4.696;2023-05-07T02:34:14;14.10;;;12.80;;
16504;SDS011;8365;51.030;4.696;2023-05-07T02:36:45;14.03;;;12.67;;
16504;SDS011;8365;51.030;4.696;2023-05-07T02:39:16;14.23;;;12.90;;
16504;SDS011;8365;51.030;4.696;2023-05-07T02:41:46;14.60;;;13.17;;
16504;SDS011;8365;51.030;4.696;2023-05-07T02:44:21;13.77;;;12.47;;
16504;SDS011;8365;51.030;4.696;2023-05-07T02:46:52;14.70;;;13.20;;
16504;SDS011;8365;51.030;4.696;2023-05-07T02:49:22;13.53;;;12.33;;
16504;SDS011;8365;51.030;4.696;2023-05-07T02:51:53;13.30;;;12.13;;
16504;SDS011;8365;51.030;4.696;2023-05-07T02:54:23;13.63;;;12.20;;
16504;SDS011;8365;51.030;4.696;2023-05-07T02:56:54;13.40;;;12.10;;
16504;SDS011;8365;51.030;4.696;2023-05-07T02:59:24;13.67;;;12.23;;
16504;SDS011;8365;51.030;4.696;2023-05-07T03:01:56;13.23;;;11.97;;
16504;SDS011;8365;51.030;4.696;2023-05-07T03:04:26;13.60;;;12.33;;
16504;SDS011;8365;51.030;4.696;2023-05-07T03:06:57;15.23;;;11.93;;
16504;SDS011;8365;51.030;4.696;2023-05-07T03:09:27;12.80;;;11.57;;
16504;SDS011;8365;51.030;4.696;2023-05-07T03:11:58;13.40;;;12.20;;
16504;SDS011;8365;51.030;4.696;2023-05-07T03:14:28;13.13;;;11.93;;
16504;SDS011;8365;51.030;4.696;2023-05-07T03:16:59;13.50;;;11.83;;
16504;SDS011;8365;51.030;4.696;2023-05-07T03:19:29;13.37;;;12.07;;
16504;SDS011;8365;51.030;4.696;2023-05-07T03:22:00;13.03;;;11.83;;
16504;SDS011;8365;51.030;4.696;2023-05-07T03:24:31;13.23;;;12.03;;
16504;SDS011;8365;51.030;4.696;2023-05-07T03:27:01;14.73;;;12.10;;
16504;SDS011;8365;51.030;4.696;2023-05-07T03:29:32;12.97;;;11.77;;
16504;SDS011;8365;51.030;4.696;2023-05-07T03:32:02;12.23;;;11.20;;
16504;SDS011;8365;51.030;4.696;2023-05-07T03:34:33;13.17;;;11.97;;
16504;SDS011;8365;51.030;4.696;2023-05-07T03:37:05;13.00;;;11.88;;
16504;SDS011;8365;51.030;4.696;2023-05-07T03:39:35;13.00;;;11.80;;
16504;SDS011;8365;51.030;4.696;2023-05-07T03:42:06;13.47;;;12.17;;
16504;SDS011;8365;51.030;4.696;2023-05-07T03:44:37;13.47;;;12.33;;
16504;SDS011;8365;51.030;4.696;2023-05-07T03:47:07;13.93;;;12.53;;
16504;SDS011;8365;51.030;4.696;2023-05-07T03:49:38;12.77;;;11.53;;
16504;SDS011;8365;51.030;4.696;2023-05-07T03:52:08;13.00;;;11.77;;
16504;SDS011;8365;51.030;4.696;2023-05-07T03:54:38;12.23;;;11.20;;
16504;SDS011;8365;51.030;4.696;2023-05-07T03:57:09;12.73;;;11.53;;
16504;SDS011;8365;51.030;4.696;2023-05-07T03:59:39;14.77;;;13.33;;
16504;SDS011;8365;51.030;4.696;2023-05-07T04:02:10;13.87;;;12.47;;
16504;SDS011;8365;51.030;4.696;2023-05-07T04:04:41;13.13;;;11.83;;
16504;SDS011;8365;51.030;4.696;2023-05-07T04:07:11;13.37;;;12.17;;
16504;SDS011;8365;51.030;4.696;2023-05-07T04:09:44;13.97;;;11.97;;
16504;SDS011;8365;51.030;4.696;2023-05-07T04:12:14;13.07;;;11.97;;
16504;SDS011;8365;51.030;4.696;2023-05-07T04:14:45;13.73;;;12.38;;
16504;SDS011;8365;51.030;4.696;2023-05-07T04:17:18;12.03;;;10.93;;
16504;SDS011;8365;51.030;4.696;2023-05-07T04:19:48;13.37;;;12.17;;
16504;SDS011;8365;51.030;4.696;2023-05-07T04:22:19;13.10;;;11.93;;
16504;SDS011;8365;51.030;4.696;2023-05-07T04:24:51;13.40;;;12.20;;
16504;SDS011;8365;51.030;4.696;2023-05-07T04:27:22;17.47;;;13.37;;
16504;SDS011;8365;51.030;4.696;2023-05-07T04:29:55;15.13;;;12.47;;
16504;SDS011;8365;51.030;4.696;2023-05-07T04:32:26;14.03;;;12.57;;
16504;SDS011;8365;51.030;4.696;2023-05-07T04:34:56;15.40;;;13.47;;
16504;SDS011;8365;51.030;4.696;2023-05-07T04:37:27;14.00;;;12.70;;
16504;SDS011;8365;51.030;4.696;2023-05-07T04:39:57;14.33;;;12.67;;
16504;SDS011;8365;51.030;4.696;2023-05-07T04:42:28;13.50;;;12.30;;
16504;SDS011;8365;51.030;4.696;2023-05-07T04:44:58;12.83;;;11.57;;
16504;SDS011;8365;51.030;4.696;2023-05-07T04:47:29;12.53;;;11.23;;
16504;SDS011;8365;51.030;4.696;2023-05-07T04:49:59;16.73;;;11.43;;
16504;SDS011;8365;51.030;4.696;2023-05-07T04:52:30;13.33;;;11.97;;
16504;SDS011;8365;51.030;4.696;2023-05-07T04:55:01;13.27;;;11.87;;
16504;SDS011;8365;51.030;4.696;2023-05-07T04:57:32;13.57;;;12.20;;
16504;SDS011;8365;51.030;4.696;2023-05-07T05:00:03;13.03;;;11.80;;
16504;SDS011;8365;51.030;4.696;2023-05-07T05:02:34;13.40;;;12.03;;
16504;SDS011;8365;51.030;4.696;2023-05-07T05:05:05;13.60;;;12.13;;
16504;SDS011;8365;51.030;4.696;2023-05-07T05:07:36;12.67;;;11.63;;
16504;SDS011;8365;51.030;4.696;2023-05-07T05:10:06;13.53;;;12.20;;
16504;SDS011;8365;51.030;4.696;2023-05-07T05:12:37;13.40;;;12.20;;
16504;SDS011;8365;51.030;4.696;2023-05-07T05:15:08;13.77;;;12.47;;
16504;SDS011;8365;51.030;4.696;2023-05-07T05:17:40;13.43;;;12.30;;
16504;SDS011;8365;51.030;4.696;2023-05-07T05:20:10;12.70;;;11.50;;
16504;SDS011;8365;51.030;4.696;2023-05-07T05:22:41;14.33;;;12.97;;
16504;SDS011;8365;51.030;4.696;2023-05-07T05:25:12;13.83;;;12.60;;
16504;SDS011;8365;51.030;4.696;2023-05-07T05:27:43;13.93;;;12.63;;
16504;SDS011;8365;51.030;4.696;2023-05-07T05:30:13;14.50;;;13.07;;
16504;SDS011;8365;51.030;4.696;2023-05-07T05:32:44;13.93;;;12.63;;
16504;SDS011;8365;51.030;4.696;2023-05-07T05:35:14;12.97;;;11.77;;
16504;SDS011;8365;51.030;4.696;2023-05-07T05:37:45;13.97;;;12.57;;
16504;SDS011;8365;51.030;4.696;2023-05-07T05:40:15;13.63;;;12.23;;
16504;SDS011;8365;51.030;4.696;2023-05-07T05:42:46;15.83;;;12.63;;
16504;SDS011;8365;51.030;4.696;2023-05-07T05:45:18;14.23;;;12.97;;
16504;SDS011;8365;51.030;4.696;2023-05-07T05:47:49;14.23;;;12.63;;
16504;SDS011;8365;51.030;4.696;2023-05-07T05:50:19;13.53;;;12.33;;
16504;SDS011;8365;51.030;4.696;2023-05-07T05:52:50;13.53;;;12.30;;
16504;SDS011;8365;51.030;4.696;2023-05-07T05:55:20;13.57;;;12.27;;
16504;SDS011;8365;51.030;4.696;2023-05-07T05:57:51;13.23;;;12.03;;
16504;SDS011;8365;51.030;4.696;2023-05-07T06:00:22;13.70;;;12.50;;
16504;SDS011;8365;51.030;4.696;2023-05-07T06:02:53;14.17;;;12.83;;
16504;SDS011;8365;51.030;4.696;2023-05-07T06:05:23;14.07;;;12.77;;
16504;SDS011;8365;51.030;4.696;2023-05-07T06:07:53;14.50;;;13.20;;
16504;SDS011;8365;51.030;4.696;2023-05-07T06:10:24;13.87;;;12.60;;
16504;SDS011;8365;51.030;4.696;2023-05-07T06:12:57;13.80;;;12.60;;
16504;SDS011;8365;51.030;4.696;2023-05-07T06:15:27;13.10;;;11.90;;
16504;SDS011;8365;51.030;4.696;2023-05-07T06:17:58;14.77;;;13.30;;
16504;SDS011;8365;51.030;4.696;2023-05-07T06:20:28;13.48;;;12.15;;
16504;SDS011;8365;51.030;4.696;2023-05-07T06:22:58;13.82;;;12.60;;
16504;SDS011;8365;51.030;4.696;2023-05-07T06:25:29;13.90;;;12.60;;
16504;SDS011;8365;51.030;4.696;2023-05-07T06:27:59;13.27;;;12.07;;
16504;SDS011;8365;51.030;4.696;2023-05-07T06:30:30;14.27;;;12.60;;
16504;SDS011;8365;51.030;4.696;2023-05-07T06:33:00;12.60;;;11.50;;
16504;SDS011;8365;51.030;4.696;2023-05-07T06:35:31;13.13;;;12.00;;
16504;SDS011;8365;51.030;4.696;2023-05-07T06:38:03;13.18;;;11.98;;
16504;SDS011;8365;51.030;4.696;2023-05-07T06:40:34;13.73;;;12.52;;
16504;SDS011;8365;51.030;4.696;2023-05-07T06:43:04;13.57;;;12.30;;
16504;SDS011;8365;51.030;4.696;2023-05-07T06:45:35;13.70;;;12.40;;
16504;SDS011;8365;51.030;4.696;2023-05-07T06:48:05;13.57;;;12.30;;
16504;SDS011;8365;51.030;4.696;2023-05-07T06:50:36;13.60;;;12.32;;
16504;SDS011;8365;51.030;4.696;2023-05-07T06:53:06;14.05;;;12.77;;
16504;SDS011;8365;51.030;4.696;2023-05-07T06:55:37;14.05;;;12.65;;
16504;SDS011;8365;51.030;4.696;2023-05-07T06:58:08;14.57;;;13.02;;
16504;SDS011;8365;51.030;4.696;2023-05-07T07:00:40;13.10;;;11.80;;
16504;SDS011;8365;51.030;4.696;2023-05-07T07:03:11;13.90;;;12.70;;
16504;SDS011;8365;51.030;4.696;2023-05-07T07:05:44;14.57;;;13.10;;
16504;SDS011;8365;51.030;4.696;2023-05-07T07:08:15;14.98;;;13.48;;
16504;SDS011;8365;51.030;4.696;2023-05-07T07:10:48;14.18;;;12.98;;
16504;SDS011;8365;51.030;4.696;2023-05-07T07:13:18;14.68;;;13.38;;
16504;SDS011;8365;51.030;4.696;2023-05-07T07:15:49;12.95;;;11.85;;
16504;SDS011;8365;51.030;4.696;2023-05-07T07:18:19;15.70;;;14.15;;
16504;SDS011;8365;51.030;4.696;2023-05-07T07:20:50;15.15;;;13.38;;
16504;SDS011;8365;51.030;4.696;2023-05-07T07:23:21;14.60;;;13.23;;
16504;SDS011;8365;51.030;4.696;2023-05-07T07:25:51;14.70;;;13.20;;
16504;SDS011;8365;51.030;4.696;2023-05-07T07:28:22;14.57;;;12.85;;
16504;SDS011;8365;51.030;4.696;2023-05-07T07:30:52;14.52;;;13.20;;
16504;SDS011;8365;51.030;4.696;2023-05-07T07:33:23;14.32;;;12.93;;
16504;SDS011;8365;51.030;4.696;2023-05-07T07:35:55;14.32;;;12.90;;
16504;SDS011;8365;51.030;4.696;2023-05-07T07:38:25;14.77;;;13.40;;
16504;SDS011;8365;51.030;4.696;2023-05-07T07:40:56;13.70;;;12.40;;
16504;SDS011;8365;51.030;4.696;2023-05-07T07:43:26;14.02;;;12.73;;
16504;SDS011;8365;51.030;4.696;2023-05-07T07:45:57;14.85;;;13.43;;
16504;SDS011;8365;51.030;4.696;2023-05-07T07:48:27;14.63;;;13.13;;
16504;SDS011;8365;51.030;4.696;2023-05-07T07:50:58;14.27;;;12.88;;
16504;SDS011;8365;51.030;4.696;2023-05-07T07:53:28;15.50;;;13.52;;
16504;SDS011;8365;51.030;4.696;2023-05-07T07:55:59;14.30;;;12.82;;
16504;SDS011;8365;51.030;4.696;2023-05-07T07:58:30;14.10;;;12.55;;
16504;SDS011;8365;51.030;4.696;2023-05-07T08:01:00;13.88;;;11.88;;
16504;SDS011;8365;51.030;4.696;2023-05-07T08:03:31;12.80;;;11.60;;
16504;SDS011;8365;51.030;4.696;2023-05-07T08:06:02;12.05;;;10.68;;
16504;SDS011;8365;51.030;4.696;2023-05-07T08:08:33;11.80;;;10.52;;
16504;SDS011;8365;51.030;4.696;2023-05-07T08:11:03;10.85;;;9.10;;
16504;SDS011;8365;51.030;4.696;2023-05-07T08:13:34;13.43;;;9.85;;
16504;SDS011;8365;51.030;4.696;2023-05-07T08:16:05;12.48;;;9.45;;
16504;SDS011;8365;51.030;4.696;2023-05-07T08:18:38;11.20;;;10.00;;
16504;SDS011;8365;51.030;4.696;2023-05-07T08:21:09;12.90;;;10.15;;
16504;SDS011;8365;51.030;4.696;2023-05-07T08:23:39;11.25;;;9.50;;
16504;SDS011;8365;51.030;4.696;2023-05-07T08:26:11;10.77;;;9.60;;
16504;SDS011;8365;51.030;4.696;2023-05-07T08:28:41;10.77;;;9.55;;
16504;SDS011;8365;51.030;4.696;2023-05-07T08:31:12;11.70;;;9.05;;
16504;SDS011;8365;51.030;4.696;2023-05-07T08:33:42;11.38;;;10.05;;
16504;SDS011;8365;51.030;4.696;2023-05-07T08:36:13;10.07;;;9.07;;
16504;SDS011;8365;51.030;4.696;2023-05-07T08:38:43;12.07;;;9.63;;
16504;SDS011;8365;51.030;4.696;2023-05-07T08:41:15;10.50;;;9.27;;
16504;SDS011;8365;51.030;4.696;2023-05-07T08:43:49;11.75;;;9.13;;
16504;SDS011;8365;51.030;4.696;2023-05-07T08:46:21;10.13;;;9.05;;
16504;SDS011;8365;51.030;4.696;2023-05-07T08:48:52;13.40;;;9.25;;
16504;SDS011;8365;51.030;4.696;2023-05-07T08:51:23;11.20;;;9.10;;
16504;SDS011;8365;51.030;4.696;2023-05-07T08:53:53;11.50;;;9.52;;
16504;SDS011;8365;51.030;4.696;2023-05-07T08:56:23;12.43;;;9.00;;
16504;SDS011;8365;51.030;4.696;2023-05-07T08:58:55;10.32;;;8.68;;
16504;SDS011;8365;51.030;4.696;2023-05-07T09:01:28;11.98;;;9.00;;
16504;SDS011;8365;51.030;4.696;2023-05-07T09:04:02;11.45;;;8.30;;
16504;SDS011;8365;51.030;4.696;2023-05-07T09:06:33;11.75;;;9.10;;
16504;SDS011;8365;51.030;4.696;2023-05-07T09:09:04;12.13;;;9.73;;
16504;SDS011;8365;51.030;4.696;2023-05-07T09:11:35;9.77;;;8.77;;
16504;SDS011;8365;51.030;4.696;2023-05-07T09:14:05;10.35;;;8.85;;
16504;SDS011;8365;51.030;4.696;2023-05-07T09:16:38;10.48;;;9.25;;
16504;SDS011;8365;51.030;4.696;2023-05-07T09:19:09;10.38;;;9.27;;
16504;SDS011;8365;51.030;4.696;2023-05-07T09:21:39;10.63;;;9.45;;
16504;SDS011;8365;51.030;4.696;2023-05-07T09:24:10;9.80;;;8.80;;
16504;SDS011;8365;51.030;4.696;2023-05-07T09:26:40;10.65;;;9.55;;
16504;SDS011;8365;51.030;4.696;2023-05-07T09:29:11;9.60;;;8.15;;
16504;SDS011;8365;51.030;4.696;2023-05-07T09:31:41;9.25;;;8.45;;
16504;SDS011;8365;51.030;4.696;2023-05-07T09:34:12;9.55;;;8.23;;
16504;SDS011;8365;51.030;4.696;2023-05-07T09:36:47;11.10;;;8.45;;
16504;SDS011;8365;51.030;4.696;2023-05-07T09:39:18;8.98;;;8.07;;
16504;SDS011;8365;51.030;4.696;2023-05-07T09:41:51;9.90;;;7.43;;
16504;SDS011;8365;51.030;4.696;2023-05-07T09:44:24;11.80;;;7.30;;
16504;SDS011;8365;51.030;4.696;2023-05-07T09:46:56;8.80;;;7.03;;
16504;SDS011;8365;51.030;4.696;2023-05-07T09:49:29;9.10;;;6.47;;
16504;SDS011;8365;51.030;4.696;2023-05-07T09:52:02;6.90;;;6.03;;
16504;SDS011;8365;51.030;4.696;2023-05-07T09:54:36;8.98;;;6.40;;
16504;SDS011;8365;51.030;4.696;2023-05-07T09:57:10;7.18;;;6.18;;
16504;SDS011;8365;51.030;4.696;2023-05-07T09:59:42;7.85;;;6.50;;
16504;SDS011;8365;51.030;4.696;2023-05-07T10:02:16;8.90;;;7.45;;
16504;SDS011;8365;51.030;4.696;2023-05-07T10:04:49;10.65;;;8.18;;
16504;SDS011;8365;51.030;4.696;2023-05-07T10:07:20;10.52;;;8.70;;
16504;SDS011;8365;51.030;4.696;2023-05-07T10:09:51;10.38;;;8.38;;
16504;SDS011;8365;51.030;4.696;2023-05-07T10:12:23;10.45;;;8.07;;
16504;SDS011;8365;51.030;4.696;2023-05-07T10:14:54;10.55;;;8.40;;
16504;SDS011;8365;51.030;4.696;2023-05-07T10:17:25;9.15;;;7.90;;
16504;SDS011;8365;51.030;4.696;2023-05-07T10:19:55;9.43;;;8.25;;
16504;SDS011;8365;51.030;4.696;2023-05-07T10:22:28;10.32;;;8.50;;
16504;SDS011;8365;51.030;4.696;2023-05-07T10:25:09;11.55;;;7.88;;
16504;SDS011;8365;51.030;4.696;2023-05-07T10:28:01;10.63;;;8.20;;
16504;SDS011;8365;51.030;4.696;2023-05-07T10:33:18;8.07;;;7.25;;
16504;SDS011;8365;51.030;4.696;2023-05-07T10:35:51;8.82;;;7.53;;
16504;SDS011;8365;51.030;4.696;2023-05-07T10:38:28;9.10;;;7.05;;
16504;SDS011;8365;51.030;4.696;2023-05-07T10:40:59;9.60;;;6.53;;
16504;SDS011;8365;51.030;4.696;2023-05-07T10:43:43;9.90;;;6.70;;
16504;SDS011;8365;51.030;4.696;2023-05-07T10:46:18;8.63;;;6.72;;
16504;SDS011;8365;51.030;4.696;2023-05-07T10:49:23;6.85;;;5.38;;
16504;SDS011;8365;51.030;4.696;2023-05-07T10:51:47;8.77;;;4.78;;
16504;SDS011;8365;51.030;4.696;2023-05-07T10:54:42;6.93;;;5.28;;
16504;SDS011;8365;51.030;4.696;2023-05-07T10:57:33;7.30;;;5.47;;
16504;SDS011;8365;51.030;4.696;2023-05-07T11:00:55;8.10;;;5.78;;
16504;SDS011;8365;51.030;4.696;2023-05-07T11:05:31;8.75;;;7.60;;
16504;SDS011;8365;51.030;4.696;2023-05-07T11:08:03;10.02;;;7.38;;
16504;SDS011;8365;51.030;4.696;2023-05-07T11:13:44;8.70;;;5.68;;
16504;SDS011;8365;51.030;4.696;2023-05-07T11:16:18;8.20;;;5.47;;
16504;SDS011;8365;51.030;4.696;2023-05-07T11:18:56;6.95;;;5.47;;
16504;SDS011;8365;51.030;4.696;2023-05-07T11:21:36;7.15;;;5.63;;
16504;SDS011;8365;51.030;4.696;2023-05-07T11:24:11;5.50;;;5.00;;
16504;SDS011;8365;51.030;4.696;2023-05-07T11:29:20;8.15;;;5.47;;
16504;SDS011;8365;51.030;4.696;2023-05-07T11:31:52;5.88;;;4.65;;
16504;SDS011;8365;51.030;4.696;2023-05-07T11:34:25;7.10;;;4.80;;
16504;SDS011;8365;51.030;4.696;2023-05-07T11:36:56;7.18;;;4.78;;
16504;SDS011;8365;51.030;4.696;2023-05-07T11:39:29;5.68;;;4.75;;
16504;SDS011;8365;51.030;4.696;2023-05-07T11:42:02;6.40;;;4.28;;
16504;SDS011;8365;51.030;4.696;2023-05-07T11:44:40;7.72;;;4.05;;
16504;SDS011;8365;51.030;4.696;2023-05-07T11:47:20;5.75;;;3.78;;
16504;SDS011;8365;51.030;4.696;2023-05-07T11:49:51;5.53;;;3.90;;
16504;SDS011;8365;51.030;4.696;2023-05-07T11:52:23;5.43;;;4.30;;
16504;SDS011;8365;51.030;4.696;2023-05-07T11:54:55;6.30;;;3.92;;
16504;SDS011;8365;51.030;4.696;2023-05-07T11:57:27;6.25;;;4.07;;
16504;SDS011;8365;51.030;4.696;2023-05-07T11:59:59;7.15;;;4.55;;
16504;SDS011;8365;51.030;4.696;2023-05-07T12:02:31;7.05;;;4.47;;
16504;SDS011;8365;51.030;4.696;2023-05-07T12:05:04;6.10;;;4.30;;
16504;SDS011;8365;51.030;4.696;2023-05-07T12:07:35;6.50;;;4.57;;
16504;SDS011;8365;51.030;4.696;2023-05-07T12:10:06;6.85;;;4.53;;
16504;SDS011;8365;51.030;4.696;2023-05-07T12:12:45;4.45;;;3.97;;
16504;SDS011;8365;51.030;4.696;2023-05-07T12:15:16;6.03;;;3.92;;
16504;SDS011;8365;51.030;4.696;2023-05-07T12:17:47;7.03;;;4.25;;
16504;SDS011;8365;51.030;4.696;2023-05-07T12:20:18;5.63;;;4.32;;
16504;SDS011;8365;51.030;4.696;2023-05-07T12:22:49;6.60;;;3.95;;
16504;SDS011;8365;51.030;4.696;2023-05-07T12:25:21;4.60;;;4.00;;
16504;SDS011;8365;51.030;4.696;2023-05-07T12:27:52;8.48;;;4.35;;
16504;SDS011;8365;51.030;4.696;2023-05-07T12:30:23;6.85;;;4.28;;
16504;SDS011;8365;51.030;4.696;2023-05-07T12:32:54;5.60;;;3.50;;
16504;SDS011;8365;51.030;4.696;2023-05-07T12:35:31;4.97;;;3.53;;
16504;SDS011;8365;51.030;4.696;2023-05-07T12:38:09;4.45;;;3.33;;
16504;SDS011;8365;51.030;4.696;2023-05-07T12:40:42;7.32;;;4.50;;
16504;SDS011;8365;51.030;4.696;2023-05-07T12:43:24;5.40;;;4.35;;
16504;SDS011;8365;51.030;4.696;2023-05-07T12:45:56;6.47;;;4.68;;
16504;SDS011;8365;51.030;4.696;2023-05-07T12:48:29;6.00;;;5.00;;
16504;SDS011;8365;51.030;4.696;2023-05-07T12:51:00;5.45;;;4.63;;
16504;SDS011;8365;51.030;4.696;2023-05-07T12:53:32;5.68;;;4.65;;
16504;SDS011;8365;51.030;4.696;2023-05-07T12:56:02;5.85;;;4.75;;
16504;SDS011;8365;51.030;4.696;2023-05-07T12:58:35;6.15;;;4.85;;
16504;SDS011;8365;51.030;4.696;2023-05-07T13:01:07;7.72;;;5.30;;
16504;SDS011;8365;51.030;4.696;2023-05-07T13:03:39;7.00;;;5.38;;
16504;SDS011;8365;51.030;4.696;2023-05-07T13:06:09;6.30;;;4.78;;
16504;SDS011;8365;51.030;4.696;2023-05-07T13:08:42;5.13;;;4.40;;
16504;SDS011;8365;51.030;4.696;2023-05-07T13:11:15;7.80;;;6.00;;
16504;SDS011;8365;51.030;4.696;2023-05-07T13:13:46;6.78;;;5.15;;
16504;SDS011;8365;51.030;4.696;2023-05-07T13:16:16;5.88;;;5.07;;
16504;SDS011;8365;51.030;4.696;2023-05-07T13:18:47;5.78;;;4.70;;
16504;SDS011;8365;51.030;4.696;2023-05-07T13:21:17;5.25;;;4.75;;
16504;SDS011;8365;51.030;4.696;2023-05-07T13:23:48;5.20;;;4.22;;
16504;SDS011;8365;51.030;4.696;2023-05-07T13:26:18;4.88;;;4.15;;
16504;SDS011;8365;51.030;4.696;2023-05-07T13:28:49;4.70;;;4.18;;
16504;SDS011;8365;51.030;4.696;2023-05-07T13:31:19;4.50;;;4.10;;
16504;SDS011;8365;51.030;4.696;2023-05-07T13:33:50;6.65;;;4.60;;
16504;SDS011;8365;51.030;4.696;2023-05-07T13:36:22;5.63;;;4.57;;
16504;SDS011;8365;51.030;4.696;2023-05-07T13:38:53;4.75;;;3.90;;
16504;SDS011;8365;51.030;4.696;2023-05-07T13:41:23;4.50;;;3.85;;
16504;SDS011;8365;51.030;4.696;2023-05-07T13:43:54;4.45;;;3.63;;
16504;SDS011;8365;51.030;4.696;2023-05-07T13:46:24;5.13;;;3.70;;
16504;SDS011;8365;51.030;4.696;2023-05-07T13:48:55;4.60;;;3.67;;
16504;SDS011;8365;51.030;4.696;2023-05-07T13:51:25;4.13;;;3.53;;
16504;SDS011;8365;51.030;4.696;2023-05-07T13:53:56;3.33;;;2.65;;
16504;SDS011;8365;51.030;4.696;2023-05-07T13:56:28;3.45;;;3.13;;
16504;SDS011;8365;51.030;4.696;2023-05-07T13:59:02;5.28;;;4.47;;
16504;SDS011;8365;51.030;4.696;2023-05-07T14:01:32;5.60;;;3.70;;
16504;SDS011;8365;51.030;4.696;2023-05-07T14:04:03;4.25;;;3.78;;
16504;SDS011;8365;51.030;4.696;2023-05-07T14:06:33;4.07;;;3.45;;
16504;SDS011;8365;51.030;4.696;2023-05-07T14:09:06;5.30;;;3.67;;
16504;SDS011;8365;51.030;4.696;2023-05-07T14:11:37;6.10;;;4.03;;
16504;SDS011;8365;51.030;4.696;2023-05-07T14:14:08;4.72;;;3.50;;
16504;SDS011;8365;51.030;4.696;2023-05-07T14:16:41;3.88;;;3.28;;
16504;SDS011;8365;51.030;4.696;2023-05-07T14:19:11;5.07;;;3.35;;
16504;SDS011;8365;51.030;4.696;2023-05-07T14:21:42;6.10;;;3.78;;
16504;SDS011;8365;51.030;4.696;2023-05-07T14:24:13;4.80;;;3.42;;
16504;SDS011;8365;51.030;4.696;2023-05-07T14:26:43;6.38;;;3.78;;
16504;SDS011;8365;51.030;4.696;2023-05-07T14:29:15;4.45;;;3.80;;
16504;SDS011;8365;51.030;4.696;2023-05-07T14:31:48;4.47;;;3.60;;
16504;SDS011;8365;51.030;4.696;2023-05-07T14:34:21;5.55;;;3.60;;
16504;SDS011;8365;51.030;4.696;2023-05-07T14:36:52;8.30;;;4.28;;
16504;SDS011;8365;51.030;4.696;2023-05-07T14:39:24;4.93;;;3.78;;
16504;SDS011;8365;51.030;4.696;2023-05-07T14:41:56;5.18;;;3.63;;
16504;SDS011;8365;51.030;4.696;2023-05-07T14:44:27;5.47;;;3.80;;
16504;SDS011;8365;51.030;4.696;2023-05-07T14:46:57;4.22;;;3.83;;
16504;SDS011;8365;51.030;4.696;2023-05-07T14:49:28;6.47;;;3.78;;
16504;SDS011;8365;51.030;4.696;2023-05-07T14:51:58;4.20;;;3.50;;
16504;SDS011;8365;51.030;4.696;2023-05-07T14:54:30;6.63;;;3.60;;
16504;SDS011;8365;51.030;4.696;2023-05-07T14:57:01;4.00;;;3.60;;
16504;SDS011;8365;51.030;4.696;2023-05-07T14:59:31;5.40;;;3.75;;
16504;SDS011;8365;51.030;4.696;2023-05-07T15:02:02;4.80;;;4.22;;
16504;SDS011;8365;51.030;4.696;2023-05-07T15:04:33;5.07;;;4.22;;
16504;SDS011;8365;51.030;4.696;2023-05-07T15:07:04;5.65;;;4.15;;
16504;SDS011;8365;51.030;4.696;2023-05-07T15:09:34;7.15;;;4.63;;
16504;SDS011;8365;51.030;4.696;2023-05-07T15:12:05;4.93;;;3.92;;
16504;SDS011;8365;51.030;4.696;2023-05-07T15:14:36;5.90;;;3.90;;
16504;SDS011;8365;51.030;4.696;2023-05-07T15:17:10;7.15;;;4.25;;
16504;SDS011;8365;51.030;4.696;2023-05-07T15:19:40;5.22;;;4.20;;
16504;SDS011;8365;51.030;4.696;2023-05-07T15:22:13;5.43;;;4.43;;
16504;SDS011;8365;51.030;4.696;2023-05-07T15:24:43;4.65;;;4.15;;